sensor_id;sensor_type;location;lat;lon;timestamp;pressure;altitude;pressure_sealevel;temperature;humidity
39823;BME280;25499;53.958;10.970;2023-04-19T06:06:25;102881.78;;;7.35;91.83
39823;BME280;25499;53.958;10.970;2023-04-19T06:08:52;102882.41;;;7.70;90.57
39823;BME280;25499;53.958;10.970;2023-04-19T06:11:19;102866.69;;;7.65;89.10
39823;BME280;25499;53.958;10.970;2023-04-19T06:13:45;102870.88;;;7.83;88.20
39823;BME280;25499;53.958;10.970;2023-04-19T06:16:12;102870.28;;;8.10;87.22
39823;BME280;25499;53.958;10.970;2023-04-19T06:18:39;102861.78;;;8.14;85.93
39823;BME280;25499;53.958;10.970;2023-04-19T06:21:07;102851.34;;;8.33;84.47
39823;BME280;25499;53.958;10.970;2023-04-19T06:23:35;102853.28;;;8.39;84.20
39823;BME280;25499;53.958;10.970;2023-04-19T06:26:02;102841.13;;;8.38;82.73
39823;BME280;25499;53.958;10.970;2023-04-19T06:28:29;102834.47;;;8.66;81.29
39823;BME280;25499;53.958;10.970;2023-04-19T06:30:56;102837.00;;;8.87;80.58
39823;BME280;25499;53.958;10.970;2023-04-19T06:33:22;102848.75;;;9.01;80.58
39823;BME280;25499;53.958;10.970;2023-04-19T06:35:49;102827.94;;;9.00;78.65
39823;BME280;25499;53.958;10.970;2023-04-19T06:38:16;102833.63;;;8.89;79.03
39823;BME280;25499;53.958;10.970;2023-04-19T06:40:44;102857.25;;;9.20;79.76
39823;BME280;25499;53.958;10.970;2023-04-19T06:43:11;102854.63;;;9.42;79.45
39823;BME280;25499;53.958;10.970;2023-04-19T06:45:38;102847.06;;;9.50;78.57
39823;BME280;25499;53.958;10.970;2023-04-19T06:48:05;102835.44;;;9.39;78.03
39823;BME280;25499;53.958;10.970;2023-04-19T06:50:31;102828.38;;;9.36;77.13
39823;BME280;25499;53.958;10.970;2023-04-19T06:52:58;102835.78;;;9.49;77.07
39823;BME280;25499;53.958;10.970;2023-04-19T06:55:25;102848.84;;;9.51;77.54
39823;BME280;25499;53.958;10.970;2023-04-19T06:57:53;102821.84;;;9.99;76.16
39823;BME280;25499;53.958;10.970;2023-04-19T07:00:20;102822.44;;;9.64;76.12
39823;BME280;25499;53.958;10.970;2023-04-19T07:02:48;102841.38;;;10.12;76.35
39823;BME280;25499;53.958;10.970;2023-04-19T07:05:14;102828.78;;;10.25;75.13
39823;BME280;25499;53.958;10.970;2023-04-19T07:07:41;102836.72;;;10.29;75.29
39823;BME280;25499;53.958;10.970;2023-04-19T07:10:08;102816.50;;;10.49;74.13
39823;BME280;25499;53.958;10.970;2023-04-19T07:12:37;102783.81;;;10.58;71.84
39823;BME280;25499;53.958;10.970;2023-04-19T07:15:07;102785.03;;;10.41;71.43
39823;BME280;25499;53.958;10.970;2023-04-19T07:17:34;102776.19;;;10.64;71.12
39823;BME280;25499;53.958;10.970;2023-04-19T07:20:02;102774.84;;;10.79;70.66
39823;BME280;25499;53.958;10.970;2023-04-19T07:22:30;102750.78;;;10.88;69.63
39823;BME280;25499;53.958;10.970;2023-04-19T07:24:56;102763.81;;;11.19;69.55
39823;BME280;25499;53.958;10.970;2023-04-19T07:27:23;102771.59;;;11.18;69.68
39823;BME280;25499;53.958;10.970;2023-04-19T07:29:51;102745.41;;;10.81;69.20
39823;BME280;25499;53.958;10.970;2023-04-19T07:32:19;102771.94;;;10.68;69.82
39823;BME280;25499;53.958;10.970;2023-04-19T07:34:46;102768.09;;;10.86;69.76
39823;BME280;25499;53.958;10.970;2023-04-19T07:37:13;102787.16;;;11.15;70.31
39823;BME280;25499;53.958;10.970;2023-04-19T07:39:39;102766.56;;;10.92;69.33
39823;BME280;25499;53.958;10.970;2023-04-19T07:42:06;102770.78;;;11.54;68.72
39823;BME280;25499;53.958;10.970;2023-04-19T07:44:33;102727.63;;;11.32;67.24
39823;BME280;25499;53.958;10.970;2023-04-19T07:47:00;102754.13;;;11.47;67.62
39823;BME280;25499;53.958;10.970;2023-04-19T07:49:28;102741.13;;;11.85;67.08
39823;BME280;25499;53.958;10.970;2023-04-19T07:51:58;102708.91;;;11.83;65.75
39823;BME280;25499;53.958;10.970;2023-04-19T07:54:25;102721.69;;;11.72;65.43
39823;BME280;25499;53.958;10.970;2023-04-19T07:56:52;102735.78;;;11.44;66.47
39823;BME280;25499;53.958;10.970;2023-04-19T07:59:18;102735.13;;;11.89;65.69
39823;BME280;25499;53.958;10.970;2023-04-19T08:01:46;102730.56;;;12.16;65.11
39823;BME280;25499;53.958;10.970;2023-04-19T08:04:12;102727.22;;;12.23;65.04
39823;BME280;25499;53.958;10.970;2023-04-19T08:06:43;102731.16;;;12.43;64.50
39823;BME280;25499;53.958;10.970;2023-04-19T08:09:10;102697.00;;;12.77;63.12
39823;BME280;25499;53.958;10.970;2023-04-19T08:11:37;102672.84;;;12.05;62.92
39823;BME280;25499;53.958;10.970;2023-04-19T08:14:04;102699.41;;;12.25;63.67
39823;BME280;25499;53.958;10.970;2023-04-19T08:16:31;102686.88;;;12.49;62.88
39823;BME280;25499;53.958;10.970;2023-04-19T08:18:57;102682.06;;;12.73;62.30
39823;BME280;25499;53.958;10.970;2023-04-19T08:21:24;102677.25;;;12.94;61.23
39823;BME280;25499;53.958;10.970;2023-04-19T08:23:52;102678.13;;;12.95;61.39
39823;BME280;25499;53.958;10.970;2023-04-19T08:26:19;102697.38;;;12.97;62.37
39823;BME280;25499;53.958;10.970;2023-04-19T08:28:47;102668.84;;;13.11;60.72
39823;BME280;25499;53.958;10.970;2023-04-19T08:31:19;102701.44;;;13.31;61.83
39823;BME280;25499;53.958;10.970;2023-04-19T08:33:48;102696.72;;;13.09;61.92
39823;BME280;25499;53.958;10.970;2023-04-19T08:36:15;102692.34;;;13.58;60.97
39823;BME280;25499;53.958;10.970;2023-04-19T08:38:42;102673.25;;;13.65;60.14
39823;BME280;25499;53.958;10.970;2023-04-19T08:41:11;102668.09;;;13.71;60.78
39823;BME280;25499;53.958;10.970;2023-04-19T08:43:42;102692.13;;;14.04;60.15
39823;BME280;25499;53.958;10.970;2023-04-19T08:46:09;102683.44;;;14.08;60.07
39823;BME280;25499;53.958;10.970;2023-04-19T08:48:36;102662.59;;;14.17;59.44
39823;BME280;25499;53.958;10.970;2023-04-19T08:51:04;102678.31;;;14.14;59.64
39823;BME280;25499;53.958;10.970;2023-04-19T08:53:33;102642.78;;;14.39;57.98
39823;BME280;25499;53.958;10.970;2023-04-19T08:56:02;102642.22;;;14.63;57.28
39823;BME280;25499;53.958;10.970;2023-04-19T08:58:30;102624.91;;;14.04;57.15
39823;BME280;25499;53.958;10.970;2023-04-19T09:00:57;102645.06;;;14.85;57.48
39823;BME280;25499;53.958;10.970;2023-04-19T09:03:25;102609.44;;;15.10;56.19
39823;BME280;25499;53.958;10.970;2023-04-19T09:05:51;102614.44;;;14.82;56.56
39823;BME280;25499;53.958;10.970;2023-04-19T09:08:23;102611.69;;;14.67;56.26
39823;BME280;25499;53.958;10.970;2023-04-19T09:10:55;102568.94;;;14.76;55.34
39823;BME280;25499;53.958;10.970;2023-04-19T09:13:21;102606.88;;;15.18;55.46
39823;BME280;25499;53.958;10.970;2023-04-19T09:15:51;102613.13;;;15.35;55.10
39823;BME280;25499;53.958;10.970;2023-04-19T09:18:19;102592.31;;;15.69;54.58
39823;BME280;25499;53.958;10.970;2023-04-19T09:20:46;102566.94;;;15.66;53.97
39823;BME280;25499;53.958;10.970;2023-04-19T09:23:15;102583.31;;;15.28;54.21
39823;BME280;25499;53.958;10.970;2023-04-19T09:25:51;102607.28;;;15.79;54.82
39823;BME280;25499;53.958;10.970;2023-04-19T09:28:19;102593.22;;;15.66;54.41
39823;BME280;25499;53.958;10.970;2023-04-19T09:30:46;102593.06;;;15.45;55.03
39823;BME280;25499;53.958;10.970;2023-04-19T09:33:30;102577.44;;;15.63;54.03
39823;BME280;25499;53.958;10.970;2023-04-19T09:35:57;102532.13;;;16.09;51.92
39823;BME280;25499;53.958;10.970;2023-04-19T09:38:25;102552.28;;;16.18;51.62
39823;BME280;25499;53.958;10.970;2023-04-19T09:40:51;102530.19;;;15.74;52.09
39823;BME280;25499;53.958;10.970;2023-04-19T09:43:22;102485.72;;;16.51;50.00
39823;BME280;25499;53.958;10.970;2023-04-19T09:45:50;102510.25;;;16.44;50.40
39823;BME280;25499;53.958;10.970;2023-04-19T09:48:18;102482.22;;;16.66;44.78
39823;BME280;25499;53.958;10.970;2023-04-19T09:50:51;102489.22;;;16.75;48.56
39823;BME280;25499;53.958;10.970;2023-04-19T09:53:18;102497.13;;;16.70;49.29
39823;BME280;25499;53.958;10.970;2023-04-19T09:55:45;102489.22;;;17.00;48.96
39823;BME280;25499;53.958;10.970;2023-04-19T09:58:12;102470.81;;;16.61;48.73
39823;BME280;25499;53.958;10.970;2023-04-19T10:00:40;102469.91;;;17.16;49.15
39823;BME280;25499;53.958;10.970;2023-04-19T10:03:08;102441.75;;;17.33;46.55
39823;BME280;25499;53.958;10.970;2023-04-19T10:05:38;102491.00;;;17.01;48.84
39823;BME280;25499;53.958;10.970;2023-04-19T10:08:07;102385.75;;;16.98;44.98
39823;BME280;25499;53.958;10.970;2023-04-19T10:10:34;102335.75;;;16.96;43.73
39823;BME280;25499;53.958;10.970;2023-04-19T10:13:03;102373.38;;;17.12;43.65
39823;BME280;25499;53.958;10.970;2023-04-19T10:15:33;102439.88;;;17.60;44.53
39823;BME280;25499;53.958;10.970;2023-04-19T10:18:01;102335.50;;;17.45;42.51
39823;BME280;25499;53.958;10.970;2023-04-19T10:20:32;102382.41;;;19.08;41.86
39823;BME280;25499;53.958;10.970;2023-04-19T10:23:05;102306.47;;;19.83;38.03
39823;BME280;25499;53.958;10.970;2023-04-19T10:25:36;102337.38;;;20.77;35.61
39823;BME280;25499;53.958;10.970;2023-04-19T10:28:03;102324.44;;;21.82;34.95
39823;BME280;25499;53.958;10.970;2023-04-19T10:30:30;102334.03;;;22.22;34.51
39823;BME280;25499;53.958;10.970;2023-04-19T10:32:58;102264.50;;;21.76;32.57
39823;BME280;25499;53.958;10.970;2023-04-19T10:35:33;102282.94;;;22.78;31.07
39823;BME280;25499;53.958;10.970;2023-04-19T10:38:08;102310.50;;;22.74;31.32
39823;BME280;25499;53.958;10.970;2023-04-19T10:40:56;102285.06;;;22.35;30.70
39823;BME280;25499;53.958;10.970;2023-04-19T10:43:26;102278.00;;;22.02;31.21
39823;BME280;25499;53.958;10.970;2023-04-19T10:45:54;102308.81;;;22.06;30.85
39823;BME280;25499;53.958;10.970;2023-04-19T10:48:31;102193.41;;;19.97;32.07
39823;BME280;25499;53.958;10.970;2023-04-19T10:50:59;102254.16;;;20.47;31.99
39823;BME280;25499;53.958;10.970;2023-04-19T10:53:47;102280.97;;;19.21;33.43
39823;BME280;25499;53.958;10.970;2023-04-19T10:56:14;102253.78;;;18.46;33.85
39823;BME280;25499;53.958;10.970;2023-04-19T10:59:13;102261.44;;;17.85;35.14
39823;BME280;25499;53.958;10.970;2023-04-19T11:01:48;102306.28;;;17.75;36.53
39823;BME280;25499;53.958;10.970;2023-04-19T11:04:16;102327.44;;;17.68;37.11
39823;BME280;25499;53.958;10.970;2023-04-19T11:07:00;102295.06;;;17.48;36.94
39823;BME280;25499;53.958;10.970;2023-04-19T11:09:30;102315.50;;;17.07;37.54
39823;BME280;25499;53.958;10.970;2023-04-19T11:12:00;102357.66;;;18.31;37.21
39823;BME280;25499;53.958;10.970;2023-04-19T11:14:29;102346.66;;;18.77;36.42
39823;BME280;25499;53.958;10.970;2023-04-19T11:16:57;102284.13;;;18.03;35.91
39823;BME280;25499;53.958;10.970;2023-04-19T11:19:24;102309.97;;;17.53;36.97
39823;BME280;25499;53.958;10.970;2023-04-19T11:21:51;102324.31;;;18.27;36.59
39823;BME280;25499;53.958;10.970;2023-04-19T11:24:18;102310.97;;;18.42;36.17
39823;BME280;25499;53.958;10.970;2023-04-19T11:26:46;102319.53;;;18.63;36.15
39823;BME280;25499;53.958;10.970;2023-04-19T11:29:13;102317.31;;;18.24;37.12
39823;BME280;25499;53.958;10.970;2023-04-19T11:31:43;102313.84;;;18.19;36.44
39823;BME280;25499;53.958;10.970;2023-04-19T11:34:10;102293.22;;;17.64;37.07
39823;BME280;25499;53.958;10.970;2023-04-19T11:36:46;102334.38;;;18.72;37.30
39823;BME280;25499;53.958;10.970;2023-04-19T11:39:13;102294.06;;;18.60;36.51
39823;BME280;25499;53.958;10.970;2023-04-19T11:41:40;102249.19;;;17.78;36.17
39823;BME280;25499;53.958;10.970;2023-04-19T11:44:13;102216.19;;;17.34;36.22
39823;BME280;25499;53.958;10.970;2023-04-19T11:46:40;102286.78;;;18.00;36.44
39823;BME280;25499;53.958;10.970;2023-04-19T11:49:07;102239.66;;;17.63;35.81
39823;BME280;25499;53.958;10.970;2023-04-19T11:51:34;102187.31;;;17.26;35.69
39823;BME280;25499;53.958;10.970;2023-04-19T11:54:01;102212.81;;;17.18;35.95
39823;BME280;25499;53.958;10.970;2023-04-19T11:56:27;102211.25;;;16.85;35.44
39823;BME280;25499;53.958;10.970;2023-04-19T11:58:56;102246.09;;;17.22;36.36
39823;BME280;25499;53.958;10.970;2023-04-19T12:01:24;102162.44;;;16.31;35.62
39823;BME280;25499;53.958;10.970;2023-04-19T12:03:53;102200.03;;;16.44;36.53
39823;BME280;25499;53.958;10.970;2023-04-19T12:06:22;102197.44;;;16.39;36.46
39823;BME280;25499;53.958;10.970;2023-04-19T12:08:50;102239.22;;;17.04;36.57
39823;BME280;25499;53.958;10.970;2023-04-19T12:11:19;102226.16;;;16.83;36.56
39823;BME280;25499;53.958;10.970;2023-04-19T12:13:47;102219.88;;;17.08;36.21
39823;BME280;25499;53.958;10.970;2023-04-19T12:16:27;102209.09;;;17.45;35.92
39823;BME280;25499;53.958;10.970;2023-04-19T12:18:54;102175.22;;;16.99;35.90
39823;BME280;25499;53.958;10.970;2023-04-19T12:21:25;102219.88;;;17.08;35.88
39823;BME280;25499;53.958;10.970;2023-04-19T12:23:55;102103.00;;;15.96;35.08
39823;BME280;25499;53.958;10.970;2023-04-19T12:26:22;102118.88;;;15.35;35.97
39823;BME280;25499;53.958;10.970;2023-04-19T12:28:50;102149.44;;;15.73;36.02
39823;BME280;25499;53.958;10.970;2023-04-19T12:31:16;102141.56;;;15.79;36.43
39823;BME280;25499;53.958;10.970;2023-04-19T12:33:46;102127.59;;;15.41;36.39
39823;BME280;25499;53.958;10.970;2023-04-19T12:36:13;102187.94;;;15.84;37.20
39823;BME280;25499;53.958;10.970;2023-04-19T12:38:40;102127.56;;;15.71;36.57
39823;BME280;25499;53.958;10.970;2023-04-19T12:41:07;102082.88;;;14.33;36.70
39823;BME280;25499;53.958;10.970;2023-04-19T12:43:34;102179.00;;;14.44;38.92
39823;BME280;25499;53.958;10.970;2023-04-19T12:46:00;102175.47;;;14.35;39.13
39823;BME280;25499;53.958;10.970;2023-04-19T12:48:27;102219.34;;;14.78;39.53
39823;BME280;25499;53.958;10.970;2023-04-19T12:50:56;102220.22;;;14.77;39.19
39823;BME280;25499;53.958;10.970;2023-04-19T12:53:22;102221.09;;;14.71;39.55
39823;BME280;25499;53.958;10.970;2023-04-19T12:55:49;102198.25;;;14.52;39.97
39823;BME280;25499;53.958;10.970;2023-04-19T12:58:16;102185.94;;;14.34;39.52
39823;BME280;25499;53.958;10.970;2023-04-19T13:00:43;102215.53;;;14.14;40.39
39823;BME280;25499;53.958;10.970;2023-04-19T13:03:10;102191.88;;;13.99;40.63
39823;BME280;25499;53.958;10.970;2023-04-19T13:05:37;102260.91;;;14.09;42.15
39823;BME280;25499;53.958;10.970;2023-04-19T13:08:05;102230.28;;;13.97;41.52
39823;BME280;25499;53.958;10.970;2023-04-19T13:10:32;102201.25;;;13.66;41.46
39823;BME280;25499;53.958;10.970;2023-04-19T13:12:59;102211.66;;;13.58;41.52
39823;BME280;25499;53.958;10.970;2023-04-19T13:15:26;102224.81;;;13.66;42.04
39823;BME280;25499;53.958;10.970;2023-04-19T13:17:53;102188.72;;;13.28;41.28
39823;BME280;25499;53.958;10.970;2023-04-19T13:20:20;102158.16;;;13.27;41.15
39823;BME280;25499;53.958;10.970;2023-04-19T13:22:47;102218.34;;;13.25;41.71
39823;BME280;25499;53.958;10.970;2023-04-19T13:25:15;102254.09;;;13.28;43.40
39823;BME280;25499;53.958;10.970;2023-04-19T13:27:42;102221.75;;;13.20;42.78
39823;BME280;25499;53.958;10.970;2023-04-19T13:30:09;102182.28;;;12.92;42.15
39823;BME280;25499;53.958;10.970;2023-04-19T13:32:36;102240.69;;;12.96;42.71
39823;BME280;25499;53.958;10.970;2023-04-19T13:35:03;102228.47;;;12.95;42.73
39823;BME280;25499;53.958;10.970;2023-04-19T13:37:30;102204.66;;;12.68;43.07
39823;BME280;25499;53.958;10.970;2023-04-19T13:39:57;102233.22;;;12.53;43.52
39823;BME280;25499;53.958;10.970;2023-04-19T13:42:25;102278.78;;;12.75;44.72
39823;BME280;25499;53.958;10.970;2023-04-19T13:44:53;102215.53;;;12.34;43.95
39823;BME280;25499;53.958;10.970;2023-04-19T13:47:20;102205.06;;;12.30;44.04
39823;BME280;25499;53.958;10.970;2023-04-19T13:49:46;102196.53;;;11.84;43.54
39823;BME280;25499;53.958;10.970;2023-04-19T13:52:16;102219.66;;;12.16;44.28
39823;BME280;25499;53.958;10.970;2023-04-19T13:54:43;102238.09;;;12.28;44.68
39823;BME280;25499;53.958;10.970;2023-04-19T13:57:10;102222.22;;;12.13;44.68
39823;BME280;25499;53.958;10.970;2023-04-19T13:59:38;102176.47;;;11.80;43.24
39823;BME280;25499;53.958;10.970;2023-04-19T14:02:05;102221.97;;;11.96;44.11
39823;BME280;25499;53.958;10.970;2023-04-19T14:04:32;102156.44;;;11.77;43.67
39823;BME280;25499;53.958;10.970;2023-04-19T14:06:59;102203.41;;;11.79;44.26
39823;BME280;25499;53.958;10.970;2023-04-19T14:09:26;102229.63;;;11.85;45.06
39823;BME280;25499;53.958;10.970;2023-04-19T14:11:53;102188.59;;;11.75;44.42
39823;BME280;25499;53.958;10.970;2023-04-19T14:14:20;102184.94;;;11.65;44.57
39823;BME280;25499;53.958;10.970;2023-04-19T14:19:38;102182.22;;;11.57;44.71
39823;BME280;25499;53.958;10.970;2023-04-19T14:22:05;102194.13;;;11.42;44.94
39823;BME280;25499;53.958;10.970;2023-04-19T14:24:32;102199.56;;;11.55;45.71
39823;BME280;25499;53.958;10.970;2023-04-19T14:26:58;102152.31;;;11.37;44.06
39823;BME280;25499;53.958;10.970;2023-04-19T14:29:25;102174.09;;;11.39;44.13
39823;BME280;25499;53.958;10.970;2023-04-19T14:31:52;102193.25;;;11.41;45.01
39823;BME280;25499;53.958;10.970;2023-04-19T14:34:19;102176.47;;;11.24;44.83
39823;BME280;25499;53.958;10.970;2023-04-19T14:36:49;102126.03;;;11.23;43.86
39823;BME280;25499;53.958;10.970;2023-04-19T14:39:16;102165.38;;;11.38;44.49
39823;BME280;25499;53.958;10.970;2023-04-19T14:41:42;102167.31;;;11.50;44.68
39823;BME280;25499;53.958;10.970;2023-04-19T14:44:10;102148.41;;;11.64;44.22
39823;BME280;25499;53.958;10.970;2023-04-19T14:46:37;102122.53;;;11.79;43.63
39823;BME280;25499;53.958;10.970;2023-04-19T14:49:04;102123.69;;;11.97;43.25
39823;BME280;25499;53.958;10.970;2023-04-19T14:51:33;102070.41;;;11.84;42.51
39823;BME280;25499;53.958;10.970;2023-04-19T14:54:03;102038.94;;;11.70;41.63
39823;BME280;25499;53.958;10.970;2023-04-19T14:56:30;102034.56;;;11.69;41.38
39823;BME280;25499;53.958;10.970;2023-04-19T14:59:05;102024.78;;;11.52;41.30
39823;BME280;25499;53.958;10.970;2023-04-19T15:01:32;102046.25;;;11.33;41.56
39823;BME280;25499;53.958;10.970;2023-04-19T15:03:59;102075.00;;;11.37;42.19
39823;BME280;25499;53.958;10.970;2023-04-19T15:06:26;102099.53;;;11.52;42.99
39823;BME280;25499;53.958;10.970;2023-04-19T15:08:53;102110.72;;;11.43;43.58
39823;BME280;25499;53.958;10.970;2023-04-19T15:11:21;102174.22;;;11.47;45.06
39823;BME280;25499;53.958;10.970;2023-04-19T15:13:48;102198.81;;;11.64;46.18
39823;BME280;25499;53.958;10.970;2023-04-19T15:16:15;102182.22;;;11.57;46.10
39823;BME280;25499;53.958;10.970;2023-04-19T15:18:48;102163.06;;;11.55;45.85
39823;BME280;25499;53.958;10.970;2023-04-19T15:21:17;102221.50;;;11.67;47.29
39823;BME280;25499;53.958;10.970;2023-04-19T15:23:44;102248.97;;;11.46;48.25
39823;BME280;25499;53.958;10.970;2023-04-19T15:26:12;102233.84;;;11.27;48.68
39823;BME280;25499;53.958;10.970;2023-04-19T15:28:40;102263.53;;;11.35;49.16
39823;BME280;25499;53.958;10.970;2023-04-19T15:31:07;102257.00;;;11.10;49.59
39823;BME280;25499;53.958;10.970;2023-04-19T15:33:35;102268.06;;;10.98;50.35
39823;BME280;25499;53.958;10.970;2023-04-19T15:36:03;102274.22;;;11.00;50.94
39823;BME280;25499;53.958;10.970;2023-04-19T15:38:30;102269.53;;;10.83;50.44
39823;BME280;25499;53.958;10.970;2023-04-19T15:40:58;102275.53;;;10.81;51.12
39823;BME280;25499;53.958;10.970;2023-04-19T15:43:25;102304.63;;;10.60;51.83
39823;BME280;25499;53.958;10.970;2023-04-19T15:45:53;102305.38;;;10.54;52.48
39823;BME280;25499;53.958;10.970;2023-04-19T15:48:20;102308.88;;;10.18;53.17
39823;BME280;25499;53.958;10.970;2023-04-19T15:50:47;102339.06;;;10.12;54.58
39823;BME280;25499;53.958;10.970;2023-04-19T15:53:14;102340.22;;;9.88;55.21
39823;BME280;25499;53.958;10.970;2023-04-19T15:55:41;102361.41;;;10.03;56.17
39823;BME280;25499;53.958;10.970;2023-04-19T15:58:08;102329.66;;;10.17;55.34
39823;BME280;25499;53.958;10.970;2023-04-19T16:00:35;102322.06;;;9.89;55.05
39823;BME280;25499;53.958;10.970;2023-04-19T16:03:03;102339.44;;;9.92;55.90
39823;BME280;25499;53.958;10.970;2023-04-19T16:05:32;102317.81;;;9.93;55.19
39823;BME280;25499;53.958;10.970;2023-04-19T16:08:02;102305.44;;;9.84;54.59
39823;BME280;25499;53.958;10.970;2023-04-19T16:10:29;102316.22;;;10.00;54.41
39823;BME280;25499;53.958;10.970;2023-04-19T16:12:56;102312.03;;;10.05;54.55
39823;BME280;25499;53.958;10.970;2023-04-19T16:15:23;102298.63;;;9.89;54.24
39823;BME280;25499;53.958;10.970;2023-04-19T16:17:50;102328.50;;;10.05;54.48
39823;BME280;25499;53.958;10.970;2023-04-19T16:20:18;102304.47;;;10.16;53.76
39823;BME280;25499;53.958;10.970;2023-04-19T16:22:45;102309.81;;;10.22;53.45
39823;BME280;25499;53.958;10.970;2023-04-19T16:25:13;102315.97;;;10.25;54.11
39823;BME280;25499;53.958;10.970;2023-04-19T16:27:41;102271.22;;;10.04;53.27
39823;BME280;25499;53.958;10.970;2023-04-19T16:30:09;102260.66;;;9.96;52.68
39823;BME280;25499;53.958;10.970;2023-04-19T16:32:36;102271.88;;;9.95;52.54
39823;BME280;25499;53.958;10.970;2023-04-19T16:35:06;102272.63;;;9.91;53.07
39823;BME280;25499;53.958;10.970;2023-04-19T16:37:34;102274.63;;;10.01;53.15
39823;BME280;25499;53.958;10.970;2023-04-19T16:40:04;102259.28;;;9.77;53.05
39823;BME280;25499;53.958;10.970;2023-04-19T16:42:39;102272.50;;;9.85;52.92
39823;BME280;25499;53.958;10.970;2023-04-19T16:45:07;102272.66;;;9.93;52.90
39823;BME280;25499;53.958;10.970;2023-04-19T16:47:40;102281.06;;;9.81;53.28
39823;BME280;25499;53.958;10.970;2023-04-19T16:50:10;102256.63;;;9.74;53.13
39823;BME280;25499;53.958;10.970;2023-04-19T16:52:39;102253.22;;;9.77;52.74
39823;BME280;25499;53.958;10.970;2023-04-19T16:55:06;102254.56;;;9.61;52.61
39823;BME280;25499;53.958;10.970;2023-04-19T16:57:33;102269.53;;;9.69;53.21
39823;BME280;25499;53.958;10.970;2023-04-19T17:00:01;102279.81;;;9.65;53.61
39823;BME280;25499;53.958;10.970;2023-04-19T17:02:32;102288.28;;;9.58;54.23
39823;BME280;25499;53.958;10.970;2023-04-19T17:05:00;102294.72;;;9.39;54.93
39823;BME280;25499;53.958;10.970;2023-04-19T17:07:27;102309.38;;;9.37;55.59
39823;BME280;25499;53.958;10.970;2023-04-19T17:09:55;102301.75;;;9.11;55.88
39823;BME280;25499;53.958;10.970;2023-04-19T17:12:23;102307.47;;;8.99;56.12
39823;BME280;25499;53.958;10.970;2023-04-19T17:14:50;102317.19;;;9.05;56.46
39823;BME280;25499;53.958;10.970;2023-04-19T17:17:18;102325.72;;;9.01;56.99
39823;BME280;25499;53.958;10.970;2023-04-19T17:19:45;102332.41;;;8.92;57.57
39823;BME280;25499;53.958;10.970;2023-04-19T17:22:20;102344.66;;;8.96;57.94
39823;BME280;25499;53.958;10.970;2023-04-19T17:24:46;102341.09;;;8.93;58.16
39823;BME280;25499;53.958;10.970;2023-04-19T17:27:15;102355.63;;;8.86;58.55
39823;BME280;25499;53.958;10.970;2023-04-19T17:29:42;102359.09;;;8.87;59.05
39823;BME280;25499;53.958;10.970;2023-04-19T17:32:08;102359.03;;;8.85;59.25
39823;BME280;25499;53.958;10.970;2023-04-19T17:34:35;102353.63;;;9.08;58.88
39823;BME280;25499;53.958;10.970;2023-04-19T17:37:04;102359.69;;;8.78;59.73
39823;BME280;25499;53.958;10.970;2023-04-19T17:39:30;102370.28;;;8.86;60.22
39823;BME280;25499;53.958;10.970;2023-04-19T17:41:57;102355.63;;;8.86;59.85
39823;BME280;25499;53.958;10.970;2023-04-19T17:44:25;102367.19;;;8.69;60.33
39823;BME280;25499;53.958;10.970;2023-04-19T17:46:54;102366.16;;;8.64;60.77
39823;BME280;25499;53.958;10.970;2023-04-19T17:49:20;102358.78;;;8.76;60.26
39823;BME280;25499;53.958;10.970;2023-04-19T17:51:47;102356.84;;;8.70;60.27
39823;BME280;25499;53.958;10.970;2023-04-19T17:54:14;102367.63;;;8.83;60.47
39823;BME280;25499;53.958;10.970;2023-04-19T17:56:42;102365.66;;;8.75;60.81
39823;BME280;25499;53.958;10.970;2023-04-19T17:59:09;102364.47;;;8.64;61.12
39823;BME280;25499;53.958;10.970;2023-04-19T18:01:37;102360.03;;;8.62;61.38
39823;BME280;25499;53.958;10.970;2023-04-19T18:04:05;102346.75;;;8.51;61.49
39823;BME280;25499;53.958;10.970;2023-04-19T18:06:31;102344.66;;;8.68;60.94
39823;BME280;25499;53.958;10.970;2023-04-19T18:08:58;102345.28;;;8.59;60.83
39823;BME280;25499;53.958;10.970;2023-04-19T18:11:27;102353.94;;;8.59;61.02
39823;BME280;25499;53.958;10.970;2023-04-19T18:13:53;102350.97;;;8.47;61.35
39823;BME280;25499;53.958;10.970;2023-04-19T18:16:21;102346.69;;;8.49;61.23
39823;BME280;25499;53.958;10.970;2023-04-19T18:18:49;102353.09;;;8.61;61.55
39823;BME280;25499;53.958;10.970;2023-04-19T18:21:16;102366.72;;;8.28;62.25
39823;BME280;25499;53.958;10.970;2023-04-19T18:23:50;102376.88;;;8.46;62.85
39823;BME280;25499;53.958;10.970;2023-04-19T18:26:18;102382.22;;;7.99;63.88
39823;BME280;25499;53.958;10.970;2023-04-19T18:28:45;102395.50;;;8.08;64.99
39823;BME280;25499;53.958;10.970;2023-04-19T18:31:15;102402.88;;;8.21;65.16
39823;BME280;25499;53.958;10.970;2023-04-19T18:33:42;102394.53;;;8.05;65.46
39823;BME280;25499;53.958;10.970;2023-04-19T18:36:10;102396.31;;;8.07;65.61
39823;BME280;25499;53.958;10.970;2023-04-19T18:38:37;102397.13;;;8.05;65.72
39823;BME280;25499;53.958;10.970;2023-04-19T18:41:04;102414.06;;;7.95;66.36
39823;BME280;25499;53.958;10.970;2023-04-19T18:43:30;102413.78;;;8.13;66.42
39823;BME280;25499;53.958;10.970;2023-04-19T18:45:57;102411.06;;;8.08;66.22
39823;BME280;25499;53.958;10.970;2023-04-19T18:48:25;102412.88;;;8.11;66.57
39823;BME280;25499;53.958;10.970;2023-04-19T18:50:53;102411.06;;;8.08;66.64
39823;BME280;25499;53.958;10.970;2023-04-19T18:53:24;102411.72;;;8.02;66.71
39823;BME280;25499;53.958;10.970;2023-04-19T18:55:53;102420.56;;;7.83;67.53